createdAt,value
2018-10-09T00:01:01.394Z,16.83
2018-10-09T00:03:29.957Z,16.30
2018-10-09T00:05:58.536Z,17.03
2018-10-09T00:08:27.070Z,13.47
2018-10-09T00:10:55.789Z,15.20
2018-10-09T00:13:24.328Z,15.30
2018-10-09T00:15:52.955Z,14.13
2018-10-09T00:18:21.604Z,17.30
2018-10-09T00:20:50.260Z,14.60
2018-10-09T00:23:18.793Z,14.77
2018-10-09T00:25:47.579Z,15.40
2018-10-09T00:28:16.153Z,16.40
2018-10-09T00:30:44.724Z,15.27
2018-10-09T00:33:13.263Z,14.60
2018-10-09T00:35:41.793Z,14.67
2018-10-09T00:38:10.482Z,14.80
2018-10-09T00:40:39.144Z,14.70
2018-10-09T00:43:07.724Z,13.53
2018-10-09T00:45:36.309Z,15.23
2018-10-09T00:48:04.931Z,15.40
2018-10-09T00:50:33.516Z,15.87
2018-10-09T00:53:02.104Z,13.73
2018-10-09T00:55:30.825Z,15.33
2018-10-09T00:57:59.373Z,15.57
2018-10-09T01:00:27.957Z,14.70
2018-10-09T01:02:56.628Z,13.20
2018-10-09T01:05:25.168Z,14.80
2018-10-09T01:07:53.941Z,15.77
2018-10-09T01:10:22.927Z,14.93
2018-10-09T01:12:51.569Z,15.27
2018-10-09T01:15:20.093Z,13.70
2018-10-09T01:17:48.908Z,15.87
2018-10-09T01:20:21.612Z,13.50
2018-10-09T01:22:50.216Z,14.17
2018-10-09T01:25:18.788Z,15.57
2018-10-09T01:27:47.384Z,15.33
2018-10-09T01:30:16.013Z,14.43
2018-10-09T01:32:44.877Z,15.43
2018-10-09T01:35:13.421Z,14.33
2018-10-09T01:37:42.068Z,15.53
2018-10-09T01:40:10.673Z,15.67
2018-10-09T01:42:39.224Z,14.80
2018-10-09T01:45:07.896Z,16.03
2018-10-09T01:47:36.507Z,16.43
2018-10-09T01:50:05.250Z,16.97
2018-10-09T01:52:33.973Z,15.10
2018-10-09T01:55:02.520Z,15.20
2018-10-09T01:57:31.057Z,14.80
2018-10-09T01:59:59.681Z,13.43
2018-10-09T02:02:28.241Z,15.40
2018-10-09T02:04:56.767Z,15.10
2018-10-09T02:07:25.421Z,15.70
2018-10-09T02:09:54.104Z,14.50
2018-10-09T02:12:22.696Z,14.30
2018-10-09T02:14:51.336Z,14.03
2018-10-09T02:17:20.214Z,14.27
2018-10-09T02:19:48.768Z,14.60
2018-10-09T02:22:17.419Z,17.33
2018-10-09T02:24:45.953Z,14.70
2018-10-09T02:27:14.581Z,14.27
2018-10-09T02:29:43.320Z,13.13
2018-10-09T02:32:11.888Z,17.07
2018-10-09T02:34:40.469Z,14.67
2018-10-09T02:37:09.340Z,16.47
2018-10-09T02:39:37.912Z,15.57
2018-10-09T02:42:06.820Z,15.93
2018-10-09T02:44:35.539Z,16.10
2018-10-09T02:47:04.420Z,16.23
2018-10-09T02:49:33.036Z,15.67
2018-10-09T02:52:01.767Z,16.27
2018-10-09T02:54:30.299Z,14.50
2018-10-09T02:56:58.870Z,16.20
2018-10-09T02:59:27.726Z,15.07
2018-10-09T03:01:56.272Z,15.30
2018-10-09T03:04:24.957Z,15.40
2018-10-09T03:06:53.696Z,16.20
2018-10-09T03:09:22.276Z,15.67
2018-10-09T03:11:50.889Z,16.10
2018-10-09T03:14:19.604Z,14.93
2018-10-09T03:16:48.340Z,15.83
2018-10-09T03:19:16.968Z,15.70
2018-10-09T03:21:45.517Z,15.60
2018-10-09T03:24:14.129Z,17.37
2018-10-09T03:26:42.744Z,18.47
2018-10-09T03:29:11.480Z,15.00
2018-10-09T03:31:40.149Z,17.13
2018-10-09T03:34:08.841Z,19.30
2018-10-09T03:36:37.489Z,17.87
2018-10-09T03:39:07.960Z,20.50
2018-10-09T03:41:36.589Z,21.03
2018-10-09T03:44:05.183Z,22.97
2018-10-09T03:46:33.692Z,27.33
2018-10-09T03:49:02.292Z,30.27
2018-10-09T03:51:30.844Z,25.57
2018-10-09T03:53:59.503Z,24.13
2018-10-09T03:56:28.352Z,28.60
2018-10-09T03:58:56.904Z,27.63
2018-10-09T04:01:25.433Z,29.20
2018-10-09T04:03:54.388Z,25.40
2018-10-09T04:06:23.046Z,32.60
2018-10-09T04:08:51.720Z,27.20
2018-10-09T04:11:20.781Z,27.60
2018-10-09T04:13:49.336Z,32.77
2018-10-09T04:16:17.967Z,29.47
2018-10-09T04:18:46.888Z,31.07
2018-10-09T04:21:15.421Z,29.07
2018-10-09T04:23:43.966Z,29.20
2018-10-09T04:26:12.681Z,30.13
2018-10-09T04:28:41.312Z,27.73
2018-10-09T04:31:09.909Z,30.30
2018-10-09T04:33:38.514Z,29.17
2018-10-09T04:36:07.424Z,27.10
2018-10-09T04:38:36.127Z,28.67
2018-10-09T04:41:05.062Z,26.43
2018-10-09T04:43:33.589Z,31.10
2018-10-09T04:46:02.142Z,28.20
2018-10-09T04:48:30.692Z,30.40
2018-10-09T04:50:59.264Z,30.73
2018-10-09T04:53:27.884Z,29.27
2018-10-09T04:55:56.664Z,33.00
2018-10-09T04:58:25.516Z,28.33
2018-10-09T05:00:54.097Z,28.47
2018-10-09T05:03:23.137Z,31.10
2018-10-09T05:05:51.741Z,31.07
2018-10-09T05:08:20.309Z,29.90
2018-10-09T05:10:49.037Z,28.00
2018-10-09T05:13:17.729Z,27.80
2018-10-09T05:15:46.289Z,29.07
2018-10-09T05:18:14.884Z,27.67
2018-10-09T05:20:43.495Z,30.63
2018-10-09T05:23:12.127Z,32.30
2018-10-09T05:25:40.918Z,32.27
2018-10-09T05:28:10.004Z,28.70
2018-10-09T05:30:38.597Z,36.93
2018-10-09T05:33:07.532Z,32.80
2018-10-09T05:35:36.172Z,32.20
2018-10-09T05:38:04.729Z,28.67
2018-10-09T05:40:33.836Z,26.37
2018-10-09T05:43:02.433Z,28.10
2018-10-09T05:45:31.038Z,26.00
2018-10-09T05:47:59.648Z,27.07
2018-10-09T05:50:28.264Z,29.80
2018-10-09T05:52:56.885Z,27.27
2018-10-09T05:55:25.729Z,25.17
2018-10-09T05:57:54.294Z,22.53
2018-10-09T06:00:23.000Z,25.57
2018-10-09T06:02:51.629Z,24.20
2018-10-09T06:05:20.313Z,22.07
2018-10-09T06:07:48.893Z,22.27
2018-10-09T06:10:17.545Z,22.50
2018-10-09T06:12:46.073Z,23.53
2018-10-09T06:15:14.668Z,20.17
2018-10-09T06:17:43.277Z,21.97
2018-10-09T06:20:11.976Z,24.40
2018-10-09T06:22:40.559Z,24.80
2018-10-09T06:25:09.344Z,23.53
2018-10-09T06:27:37.999Z,24.23
2018-10-09T06:30:06.688Z,24.30
2018-10-09T06:32:35.261Z,22.70
2018-10-09T06:35:04.565Z,23.17
2018-10-09T06:37:33.228Z,22.43
2018-10-09T06:40:01.990Z,21.43
2018-10-09T06:42:30.603Z,19.00
2018-10-09T06:44:59.276Z,20.13
2018-10-09T06:47:27.832Z,19.70
2018-10-09T06:49:56.414Z,18.70
2018-10-09T06:52:24.964Z,19.97
2018-10-09T06:54:53.935Z,19.57
2018-10-09T06:57:22.532Z,18.63
2018-10-09T06:59:51.186Z,17.80
2018-10-09T07:02:19.884Z,18.97
2018-10-09T07:04:48.581Z,16.10
2018-10-09T07:07:17.141Z,17.00
2018-10-09T07:09:46.060Z,16.50
2018-10-09T07:12:14.625Z,15.03
2018-10-09T07:14:43.232Z,15.70
2018-10-09T07:17:12.156Z,16.77
2018-10-09T07:19:40.640Z,18.03
2018-10-09T07:22:09.300Z,18.93
2018-10-09T07:24:37.932Z,19.60
2018-10-09T07:27:06.717Z,18.60
2018-10-09T07:29:35.329Z,20.73
2018-10-09T07:32:04.152Z,20.10
2018-10-09T07:34:32.912Z,19.23
2018-10-09T07:37:01.520Z,21.30
2018-10-09T07:39:30.281Z,19.23
2018-10-09T07:41:58.909Z,19.40
2018-10-09T07:44:27.461Z,19.40
2018-10-09T07:46:56.184Z,17.10
2018-10-09T07:49:24.780Z,18.63
2018-10-09T07:51:53.381Z,21.17
2018-10-09T07:54:21.949Z,20.07
2018-10-09T07:56:50.602Z,22.47
2018-10-09T07:59:19.172Z,21.77
2018-10-09T08:01:47.856Z,19.73
2018-10-09T08:04:16.425Z,18.50
2018-10-09T08:06:45.097Z,19.33
2018-10-09T08:09:13.729Z,20.47
2018-10-09T08:11:42.285Z,19.43
2018-10-09T08:14:10.857Z,18.63
2018-10-09T08:16:39.425Z,21.57
2018-10-09T08:19:08.032Z,19.07
2018-10-09T08:21:36.573Z,18.93
2018-10-09T08:24:05.385Z,20.20
2018-10-09T08:26:34.096Z,19.37
2018-10-09T08:29:02.673Z,19.50
2018-10-09T08:31:31.584Z,19.50
2018-10-09T08:34:00.149Z,19.27
2018-10-09T08:36:28.745Z,19.37
2018-10-09T08:38:57.437Z,20.17
2018-10-09T08:41:26.212Z,20.50
2018-10-09T08:43:54.702Z,18.97
2018-10-09T08:46:23.419Z,19.47
2018-10-09T08:48:51.977Z,21.03
2018-10-09T08:51:20.629Z,19.97
2018-10-09T08:53:49.360Z,21.37
2018-10-09T08:56:18.034Z,19.90
2018-10-09T08:58:46.624Z,18.83
2018-10-09T09:01:15.437Z,20.13
2018-10-09T09:03:43.998Z,20.20
2018-10-09T09:06:12.585Z,20.60
2018-10-09T09:08:41.352Z,18.67
2018-10-09T09:11:09.996Z,20.60
2018-10-09T09:13:38.592Z,22.90
2018-10-09T09:16:07.669Z,21.07
2018-10-09T09:18:36.195Z,19.43
2018-10-09T09:21:05.091Z,18.43
2018-10-09T09:23:33.812Z,21.60
2018-10-09T09:26:02.433Z,20.30
2018-10-09T09:28:31.104Z,20.40
2018-10-09T09:30:59.765Z,20.23
2018-10-09T09:33:28.413Z,18.50
2018-10-09T09:35:56.996Z,19.60
2018-10-09T09:38:25.608Z,19.57
2018-10-09T09:40:54.465Z,18.33
2018-10-09T09:43:23.096Z,18.87
2018-10-09T09:45:52.008Z,21.03
2018-10-09T09:48:20.545Z,22.00
2018-10-09T09:50:49.153Z,20.77
2018-10-09T09:53:17.913Z,20.93
2018-10-09T09:55:46.505Z,21.33
2018-10-09T09:58:15.091Z,19.23
2018-10-09T10:00:49.149Z,21.60
2018-10-09T10:03:17.724Z,20.73
2018-10-09T10:05:46.400Z,21.57
2018-10-09T10:08:15.121Z,21.03
2018-10-09T10:10:43.897Z,22.43
2018-10-09T10:13:12.492Z,20.87
2018-10-09T10:15:41.171Z,21.17
2018-10-09T10:18:09.741Z,22.93
2018-10-09T10:20:38.373Z,22.13
2018-10-09T10:23:07.417Z,23.23
2018-10-09T10:25:35.973Z,24.17
2018-10-09T10:28:04.549Z,22.93
2018-10-09T10:30:33.177Z,22.20
2018-10-09T10:33:01.752Z,24.63
2018-10-09T10:35:30.404Z,23.87
2018-10-09T10:37:59.156Z,24.87
2018-10-09T10:40:27.761Z,25.97
2018-10-09T10:42:56.364Z,25.17
2018-10-09T10:45:25.470Z,24.93
2018-10-09T10:47:54.033Z,24.83
2018-10-09T10:50:22.680Z,26.53
2018-10-09T10:52:51.724Z,23.07
2018-10-09T10:55:20.261Z,23.20
2018-10-09T10:57:48.861Z,22.00
2018-10-09T11:00:17.539Z,21.77
2018-10-09T11:02:46.200Z,24.63
2018-10-09T11:05:14.732Z,26.10
2018-10-09T11:07:43.532Z,29.27
2018-10-09T11:10:12.056Z,28.10
2018-10-09T11:12:40.634Z,29.40
2018-10-09T11:15:09.521Z,29.20
2018-10-09T11:17:38.131Z,28.60
2018-10-09T11:20:06.896Z,27.83
2018-10-09T11:22:35.889Z,29.33
2018-10-09T11:25:04.557Z,29.67
2018-10-09T11:27:33.243Z,30.43
2018-10-09T11:30:02.186Z,30.73
2018-10-09T11:32:30.869Z,29.87
2018-10-09T11:34:59.432Z,29.40
2018-10-09T11:37:28.056Z,30.27
2018-10-09T11:39:56.676Z,28.73
2018-10-09T11:42:25.332Z,28.47
2018-10-09T11:44:53.953Z,27.20
2018-10-09T11:47:22.573Z,28.47
2018-10-09T11:49:51.124Z,28.63
2018-10-09T11:52:19.869Z,27.63
2018-10-09T11:54:48.436Z,25.17
2018-10-09T11:57:16.967Z,25.60
2018-10-09T11:59:45.753Z,29.07
2018-10-09T12:02:14.476Z,28.77
2018-10-09T12:04:43.008Z,27.23
2018-10-09T12:07:11.768Z,27.53
2018-10-09T12:09:40.408Z,28.50
2018-10-09T12:12:08.980Z,26.50
2018-10-09T12:14:37.643Z,26.43
2018-10-09T12:17:06.277Z,25.83
2018-10-09T12:19:34.880Z,27.17
2018-10-09T12:22:03.517Z,25.40
2018-10-09T12:24:32.188Z,27.07
2018-10-09T12:27:00.736Z,26.70
2018-10-09T12:29:29.480Z,26.10
2018-10-09T12:31:58.072Z,25.00
2018-10-09T12:34:26.596Z,24.17
2018-10-09T12:36:55.394Z,25.40
2018-10-09T12:39:23.953Z,26.60
2018-10-09T12:41:52.672Z,25.40
2018-10-09T12:44:21.497Z,28.37
2018-10-09T12:46:50.076Z,23.57
2018-10-09T12:49:18.667Z,25.40
2018-10-09T12:51:47.392Z,25.43
2018-10-09T12:54:15.925Z,25.67
2018-10-09T12:56:44.602Z,25.00
2018-10-09T12:59:13.272Z,28.10
2018-10-09T13:01:41.936Z,29.07
2018-10-09T13:04:10.484Z,24.80
2018-10-09T13:06:39.250Z,25.37
2018-10-09T13:09:10.316Z,23.67
2018-10-09T13:11:39.241Z,24.67
2018-10-09T13:14:07.879Z,24.43
2018-10-09T13:16:36.745Z,25.53
2018-10-09T13:19:05.629Z,24.60
2018-10-09T13:21:34.373Z,25.10
2018-10-09T13:24:02.812Z,27.63
2018-10-09T13:26:31.378Z,26.73
2018-10-09T13:28:59.921Z,23.60
2018-10-09T13:31:28.481Z,24.57
2018-10-09T13:33:57.230Z,22.03
2018-10-09T13:36:25.780Z,23.37
2018-10-09T13:38:54.416Z,22.80
2018-10-09T13:41:23.082Z,25.93
2018-10-09T13:43:51.703Z,25.00
2018-10-09T13:46:20.257Z,23.83
2018-10-09T13:48:48.880Z,24.17
2018-10-09T13:51:17.451Z,22.57
2018-10-09T13:53:46.136Z,22.50
2018-10-09T13:56:15.085Z,25.53
2018-10-09T13:58:43.812Z,25.07
2018-10-09T14:01:12.433Z,24.93
2018-10-09T14:03:41.225Z,25.43
2018-10-09T14:06:09.843Z,23.30
2018-10-09T14:08:38.396Z,24.23
2018-10-09T14:11:08.213Z,25.03
2018-10-09T14:13:36.997Z,23.53
2018-10-09T14:16:05.702Z,25.50
2018-10-09T14:18:34.605Z,24.10
2018-10-09T14:21:03.193Z,23.57
2018-10-09T14:23:31.765Z,25.30
2018-10-09T14:26:00.489Z,26.60
2018-10-09T14:28:29.120Z,25.87
2018-10-09T14:30:57.736Z,26.33
2018-10-09T14:33:27.002Z,22.93
2018-10-09T14:35:55.633Z,24.60
2018-10-09T14:38:24.217Z,23.90
2018-10-09T14:40:53.113Z,23.63
2018-10-09T14:43:21.688Z,25.97
2018-10-09T14:45:50.329Z,25.00
2018-10-09T14:48:18.929Z,24.77
2018-10-09T14:50:47.677Z,25.93
2018-10-09T14:53:16.305Z,23.67
2018-10-09T14:55:45.127Z,26.30
2018-10-09T14:58:13.816Z,24.47
2018-10-09T15:00:42.480Z,24.40
2018-10-09T15:03:11.413Z,26.03
2018-10-09T15:05:39.972Z,26.20
2018-10-09T15:08:08.573Z,22.53
2018-10-09T15:10:37.184Z,23.57
2018-10-09T15:13:05.984Z,25.03
2018-10-09T15:15:34.559Z,23.07
2018-10-09T15:18:03.161Z,25.83
2018-10-09T15:20:31.713Z,24.93
2018-10-09T15:23:00.261Z,25.47
2018-10-09T15:25:28.962Z,23.90
2018-10-09T15:27:57.520Z,23.03
2018-10-09T15:30:26.105Z,24.10
2018-10-09T15:32:54.736Z,25.23
2018-10-09T15:35:23.350Z,25.80
2018-10-09T15:37:51.900Z,26.27
2018-10-09T15:40:20.500Z,24.97
2018-10-09T15:42:49.193Z,26.33
2018-10-09T15:45:17.728Z,26.07
2018-10-09T15:47:46.346Z,25.97
2018-10-09T15:50:15.032Z,23.50
2018-10-09T15:52:43.644Z,23.93
2018-10-09T15:55:12.512Z,27.20
2018-10-09T15:57:41.120Z,25.90
2018-10-09T16:00:09.812Z,25.30
2018-10-09T16:02:38.689Z,24.33
2018-10-09T16:05:07.269Z,23.20
2018-10-09T16:07:35.876Z,23.10
2018-10-09T16:10:04.832Z,21.97
2018-10-09T16:12:33.449Z,21.13
2018-10-09T16:15:02.011Z,20.83
2018-10-09T16:17:30.925Z,21.27
2018-10-09T16:20:00.362Z,22.40
2018-10-09T16:22:28.972Z,21.73
2018-10-09T16:24:57.712Z,22.33
2018-10-09T16:27:26.397Z,20.87
2018-10-09T16:29:54.961Z,22.20
2018-10-09T16:32:23.776Z,23.07
2018-10-09T16:34:52.341Z,22.37
2018-10-09T16:37:21.125Z,21.03
2018-10-09T16:39:49.942Z,23.33
2018-10-09T16:42:18.623Z,23.37
2018-10-09T16:44:47.248Z,24.33
2018-10-09T16:47:15.941Z,21.60
2018-10-09T16:49:44.493Z,23.20
2018-10-09T16:52:13.070Z,22.63
2018-10-09T16:54:41.827Z,21.23
2018-10-09T16:57:10.513Z,21.50
2018-10-09T16:59:39.101Z,20.50
2018-10-09T17:02:08.209Z,23.50
2018-10-09T17:04:36.864Z,21.80
2018-10-09T17:07:05.529Z,20.80
2018-10-09T17:09:34.289Z,21.17
2018-10-09T17:12:02.880Z,21.20
2018-10-09T17:14:31.577Z,21.70
2018-10-09T17:17:00.241Z,23.13
2018-10-09T17:19:29.050Z,23.90
2018-10-09T17:21:57.665Z,21.93
2018-10-09T17:24:26.295Z,20.93
2018-10-09T17:26:55.033Z,20.43
2018-10-09T17:29:23.537Z,21.40
2018-10-09T17:31:52.140Z,22.30
2018-10-09T17:34:20.748Z,23.23
2018-10-09T17:36:49.441Z,23.20
2018-10-09T17:39:18.228Z,22.10
2018-10-09T17:41:46.840Z,24.10
2018-10-09T17:44:15.429Z,23.80
2018-10-09T17:46:44.315Z,25.13
2018-10-09T17:49:13.403Z,23.27
2018-10-09T17:51:42.008Z,23.77
2018-10-09T17:54:10.788Z,22.43
2018-10-09T17:56:39.448Z,21.20
2018-10-09T17:59:08.026Z,21.90
2018-10-09T18:01:36.752Z,25.17
2018-10-09T18:04:05.281Z,21.60
2018-10-09T18:06:33.809Z,23.40
2018-10-09T18:09:02.389Z,23.23
2018-10-09T18:11:31.006Z,23.80
2018-10-09T18:13:59.564Z,21.60
2018-10-09T18:16:28.349Z,23.00
2018-10-09T18:18:56.942Z,24.80
2018-10-09T18:21:25.584Z,23.83
2018-10-09T18:23:54.469Z,24.47
2018-10-09T18:26:23.156Z,22.73
2018-10-09T18:28:51.825Z,25.80
2018-10-09T18:31:20.436Z,24.50
2018-10-09T18:33:49.057Z,22.47
2018-10-09T18:36:17.664Z,27.47
2018-10-09T18:38:46.628Z,26.23
2018-10-09T18:41:15.276Z,28.17
2018-10-09T18:43:43.893Z,28.97
2018-10-09T18:46:12.621Z,26.20
2018-10-09T18:48:41.180Z,27.27
2018-10-09T18:51:09.769Z,26.10
2018-10-09T18:53:38.476Z,27.00
2018-10-09T18:56:07.041Z,26.27
2018-10-09T18:58:35.726Z,26.90
2018-10-09T19:01:04.569Z,27.50
2018-10-09T19:03:33.166Z,28.63
2018-10-09T19:06:01.745Z,26.27
2018-10-09T19:08:30.344Z,27.47
2018-10-09T19:10:58.933Z,24.87
2018-10-09T19:13:27.492Z,25.40
2018-10-09T19:15:56.210Z,29.03
2018-10-09T19:18:24.857Z,27.53
2018-10-09T19:20:53.424Z,27.33
2018-10-09T19:23:22.184Z,27.47
2018-10-09T19:25:50.761Z,28.63
2018-10-09T19:28:19.325Z,27.00
2018-10-09T19:30:48.031Z,27.67
2018-10-09T19:33:16.720Z,27.97
2018-10-09T19:35:45.252Z,27.90
2018-10-09T19:38:13.846Z,27.00
2018-10-09T19:40:42.404Z,28.87
2018-10-09T19:43:11.022Z,25.90
2018-10-09T19:45:39.951Z,28.77
2018-10-09T19:48:08.502Z,26.23
2018-10-09T19:50:37.235Z,26.37
2018-10-09T19:53:06.157Z,25.40
2018-10-09T19:55:34.733Z,26.57
2018-10-09T19:58:03.305Z,27.17
2018-10-09T20:00:32.280Z,25.97
2018-10-09T20:03:00.814Z,26.03
2018-10-09T20:05:29.408Z,27.67
2018-10-09T20:07:58.045Z,27.67
2018-10-09T20:10:26.622Z,25.50
2018-10-09T20:12:55.187Z,26.60
2018-10-09T20:15:24.127Z,29.73
2018-10-09T20:17:52.708Z,25.20
2018-10-09T20:20:21.497Z,29.00
2018-10-09T20:22:50.256Z,26.20
2018-10-09T20:25:18.873Z,26.37
2018-10-09T20:27:47.543Z,27.43
2018-10-09T20:30:16.316Z,24.10
2018-10-09T20:32:44.843Z,22.93
2018-10-09T20:35:13.401Z,25.43
2018-10-09T20:37:42.340Z,24.50
2018-10-09T20:40:11.108Z,25.57
2018-10-09T20:42:39.734Z,26.10
2018-10-09T20:45:08.716Z,26.97
2018-10-09T20:47:43.190Z,26.67
2018-10-09T20:50:12.375Z,27.50
2018-10-09T20:52:40.979Z,26.17
2018-10-09T20:55:09.584Z,24.53
2018-10-09T20:57:38.872Z,27.60
2018-10-09T21:00:07.561Z,27.07
2018-10-09T21:02:36.129Z,27.57
2018-10-09T21:05:04.841Z,26.30
2018-10-09T21:07:33.537Z,25.40
2018-10-09T21:10:02.145Z,27.37
2018-10-09T21:12:30.973Z,27.60
2018-10-09T21:14:59.524Z,26.37
2018-10-09T21:17:28.297Z,25.40
2018-10-09T21:19:56.857Z,25.37
2018-10-09T21:22:25.464Z,25.13
2018-10-09T21:24:53.988Z,26.43
2018-10-09T21:27:22.749Z,26.00
2018-10-09T21:29:51.420Z,26.67
2018-10-09T21:32:20.026Z,26.20
2018-10-09T21:34:48.740Z,26.73
2018-10-09T21:37:17.396Z,29.70
2018-10-09T21:39:45.968Z,28.00
2018-10-09T21:42:14.650Z,28.43
2018-10-09T21:44:43.214Z,28.40
2018-10-09T21:47:11.869Z,27.10
2018-10-09T21:49:40.713Z,27.20
2018-10-09T21:52:09.296Z,27.47
2018-10-09T21:54:38.104Z,26.80
2018-10-09T21:57:06.836Z,26.23
2018-10-09T21:59:35.380Z,26.30
2018-10-09T22:02:03.940Z,27.37
2018-10-09T22:04:32.741Z,28.27
2018-10-09T22:07:01.355Z,28.30
2018-10-09T22:09:29.920Z,26.57
2018-10-09T22:11:58.484Z,25.40
2018-10-09T22:14:27.048Z,26.50
2018-10-09T22:16:55.568Z,28.53
2018-10-09T22:19:24.408Z,26.80
2018-10-09T22:21:53.057Z,28.17
2018-10-09T22:24:21.701Z,29.00
2018-10-09T22:26:50.253Z,26.17
2018-10-09T22:29:18.856Z,26.17
2018-10-09T22:31:47.474Z,26.43
2018-10-09T22:34:16.177Z,25.43
2018-10-09T22:36:44.745Z,28.03
2018-10-09T22:39:13.328Z,26.37
2018-10-09T22:41:41.890Z,23.10
2018-10-09T22:44:10.474Z,26.77
2018-10-09T22:46:39.268Z,25.53
2018-10-09T22:49:08.005Z,24.47
2018-10-09T22:51:36.536Z,25.80
2018-10-09T22:54:05.125Z,24.70
2018-10-09T22:56:33.861Z,31.60
2018-10-09T22:59:02.469Z,24.80
2018-10-09T23:01:31.185Z,25.97
2018-10-09T23:03:59.816Z,26.40
2018-10-09T23:06:28.433Z,27.20
2018-10-09T23:08:57.000Z,25.73
2018-10-09T23:11:25.728Z,26.40
2018-10-09T23:13:54.312Z,25.33
2018-10-09T23:16:22.873Z,27.40
2018-10-09T23:18:51.573Z,27.77
2018-10-09T23:21:20.164Z,27.20
2018-10-09T23:23:48.854Z,26.17
2018-10-09T23:26:17.527Z,25.40
2018-10-09T23:28:46.061Z,25.23
2018-10-09T23:31:14.668Z,24.40
2018-10-09T23:33:43.360Z,25.70
2018-10-09T23:36:12.009Z,25.53
2018-10-09T23:38:40.572Z,24.47
2018-10-09T23:41:09.501Z,27.30
2018-10-09T23:43:38.043Z,27.30
2018-10-09T23:46:06.809Z,26.80
2018-10-09T23:48:35.472Z,24.77
2018-10-09T23:51:04.001Z,24.97
2018-10-09T23:53:32.541Z,25.13
2018-10-09T23:56:01.306Z,24.20
2018-10-09T23:58:30.132Z,25.07
